EGBB/BHX METAR and TAF weather

Enter ICAO airport designator
Station Type Date Time Source
EGBB METAR 2019/10/21 22:20 UTC NOAA

EGBB 212220Z 32003KT 9999 FEW029 BKN038 10/07 Q1023


Station Type Date Time Source
EGBB Decoded METAR 2019/10/21 22:20 UTC NOAA

Birmingham / Airport, United Kingdom (EGBB) 52-27N 001-44W 0M
Oct 21, 2019 - 06:20 PM EDT / 2019.10.21 2220 UTC
Wind: from the NW (320 degrees) at 3 MPH (3 KT):0
Visibility: greater than 7 mile(s):0
Sky conditions: mostly cloudy
Temperature: 50 F (10 C)
Dew Point: 44 F (7 C)
Relative Humidity: 81%
Pressure (altimeter): 30.21 in. Hg (1023 hPa)
ob: EGBB 212220Z 32003KT 9999 FEW029 BKN038 10/07 Q1023
cycle: 22

Station Type Date Time Source
EGBB TAF 2019/10/21 18:09 UTC NOAA

TAF EGBB 211705Z 2118/2218 36010KT 9999 SCT035
BECMG 2118/2120 VRB03KT
BECMG 2120/2123 8000
TEMPO 2123/2210 4000 BR PROB30 2201/2209 0300 FG VV///
BECMG 2207/2210 23010KT

Example: see airport list